sensor_id;sensor_type;location;lat;lon;timestamp;P1;durP1;ratioP1;P2;durP2;ratioP2
49237;SDS011;35069;47.906;1.892;2022-12-18T00:01:26;52.90;;;23.45;;
49237;SDS011;35069;47.906;1.892;2022-12-18T00:03:52;52.95;;;21.73;;
49237;SDS011;35069;47.906;1.892;2022-12-18T00:06:19;52.10;;;24.38;;
49237;SDS011;35069;47.906;1.892;2022-12-18T00:08:45;47.17;;;21.73;;
49237;SDS011;35069;47.906;1.892;2022-12-18T00:11:12;48.03;;;22.42;;
49237;SDS011;35069;47.906;1.892;2022-12-18T00:13:44;46.42;;;21.80;;
49237;SDS011;35069;47.906;1.892;2022-12-18T00:16:11;52.15;;;23.48;;
49237;SDS011;35069;47.906;1.892;2022-12-18T00:18:39;45.53;;;22.15;;
49237;SDS011;35069;47.906;1.892;2022-12-18T00:21:07;48.78;;;24.05;;
49237;SDS011;35069;47.906;1.892;2022-12-18T00:23:35;44.95;;;22.45;;
49237;SDS011;35069;47.906;1.892;2022-12-18T00:26:04;51.03;;;22.50;;
49237;SDS011;35069;47.906;1.892;2022-12-18T00:28:31;44.30;;;21.05;;
49237;SDS011;35069;47.906;1.892;2022-12-18T00:31:01;48.65;;;23.33;;
49237;SDS011;35069;47.906;1.892;2022-12-18T00:33:28;45.05;;;21.55;;
49237;SDS011;35069;47.906;1.892;2022-12-18T00:35:54;42.97;;;22.60;;
49237;SDS011;35069;47.906;1.892;2022-12-18T00:38:19;45.20;;;21.77;;
49237;SDS011;35069;47.906;1.892;2022-12-18T00:40:45;37.85;;;22.35;;
49237;SDS011;35069;47.906;1.892;2022-12-18T00:43:10;46.72;;;22.50;;
49237;SDS011;35069;47.906;1.892;2022-12-18T00:45:36;47.60;;;23.92;;
49237;SDS011;35069;47.906;1.892;2022-12-18T00:48:02;46.83;;;22.77;;
49237;SDS011;35069;47.906;1.892;2022-12-18T00:50:27;49.33;;;23.42;;
49237;SDS011;35069;47.906;1.892;2022-12-18T00:52:53;47.17;;;21.63;;
49237;SDS011;35069;47.906;1.892;2022-12-18T00:55:19;43.63;;;22.08;;
49237;SDS011;35069;47.906;1.892;2022-12-18T00:57:44;43.65;;;20.92;;
49237;SDS011;35069;47.906;1.892;2022-12-18T01:00:11;46.28;;;21.38;;
49237;SDS011;35069;47.906;1.892;2022-12-18T01:02:39;49.97;;;21.65;;
49237;SDS011;35069;47.906;1.892;2022-12-18T01:05:05;49.03;;;22.40;;
49237;SDS011;35069;47.906;1.892;2022-12-18T01:07:31;41.15;;;20.98;;
49237;SDS011;35069;47.906;1.892;2022-12-18T01:09:57;44.50;;;21.35;;
49237;SDS011;35069;47.906;1.892;2022-12-18T01:12:22;42.83;;;20.63;;
49237;SDS011;35069;47.906;1.892;2022-12-18T01:14:48;48.63;;;22.58;;
49237;SDS011;35069;47.906;1.892;2022-12-18T01:17:13;52.78;;;23.50;;
49237;SDS011;35069;47.906;1.892;2022-12-18T01:19:39;37.88;;;20.27;;
49237;SDS011;35069;47.906;1.892;2022-12-18T01:22:05;44.25;;;21.70;;
49237;SDS011;35069;47.906;1.892;2022-12-18T01:24:31;38.75;;;19.25;;
49237;SDS011;35069;47.906;1.892;2022-12-18T01:26:56;41.20;;;21.00;;
49237;SDS011;35069;47.906;1.892;2022-12-18T01:29:22;41.42;;;21.40;;
49237;SDS011;35069;47.906;1.892;2022-12-18T01:31:48;44.35;;;20.85;;
49237;SDS011;35069;47.906;1.892;2022-12-18T01:34:14;44.80;;;21.60;;
49237;SDS011;35069;47.906;1.892;2022-12-18T01:36:40;46.58;;;21.92;;
49237;SDS011;35069;47.906;1.892;2022-12-18T01:39:12;49.78;;;22.55;;
49237;SDS011;35069;47.906;1.892;2022-12-18T01:41:39;43.85;;;19.60;;
49237;SDS011;35069;47.906;1.892;2022-12-18T01:47:13;40.63;;;19.38;;
49237;SDS011;35069;47.906;1.892;2022-12-18T01:49:43;43.95;;;22.08;;
49237;SDS011;35069;47.906;1.892;2022-12-18T01:52:08;41.90;;;20.38;;
49237;SDS011;35069;47.906;1.892;2022-12-18T01:54:34;39.75;;;19.95;;
49237;SDS011;35069;47.906;1.892;2022-12-18T01:57:00;42.63;;;21.08;;
49237;SDS011;35069;47.906;1.892;2022-12-18T01:59:26;42.53;;;21.25;;
49237;SDS011;35069;47.906;1.892;2022-12-18T02:01:54;43.80;;;20.35;;
49237;SDS011;35069;47.906;1.892;2022-12-18T02:06:51;35.17;;;19.48;;
49237;SDS011;35069;47.906;1.892;2022-12-18T02:09:30;44.42;;;22.05;;
49237;SDS011;35069;47.906;1.892;2022-12-18T02:12:10;45.65;;;19.73;;
49237;SDS011;35069;47.906;1.892;2022-12-18T02:17:30;37.35;;;18.98;;
49237;SDS011;35069;47.906;1.892;2022-12-18T02:23:10;40.38;;;20.42;;
49237;SDS011;35069;47.906;1.892;2022-12-18T02:28:46;38.92;;;20.92;;
49237;SDS011;35069;47.906;1.892;2022-12-18T02:31:18;43.60;;;19.02;;
49237;SDS011;35069;47.906;1.892;2022-12-18T02:33:51;42.35;;;19.17;;
49237;SDS011;35069;47.906;1.892;2022-12-18T02:36:19;40.22;;;21.00;;
49237;SDS011;35069;47.906;1.892;2022-12-18T02:38:46;40.67;;;19.75;;
49237;SDS011;35069;47.906;1.892;2022-12-18T02:41:13;38.50;;;18.77;;
49237;SDS011;35069;47.906;1.892;2022-12-18T02:43:45;39.45;;;20.20;;
49237;SDS011;35069;47.906;1.892;2022-12-18T02:46:23;43.03;;;21.80;;
49237;SDS011;35069;47.906;1.892;2022-12-18T02:48:57;37.53;;;18.58;;
49237;SDS011;35069;47.906;1.892;2022-12-18T02:51:33;37.38;;;19.08;;
49237;SDS011;35069;47.906;1.892;2022-12-18T02:54:36;40.75;;;20.58;;
49237;SDS011;35069;47.906;1.892;2022-12-18T03:02:38;39.20;;;18.35;;
49237;SDS011;35069;47.906;1.892;2022-12-18T03:08:41;44.47;;;19.00;;
49237;SDS011;35069;47.906;1.892;2022-12-18T03:11:10;38.33;;;19.33;;
49237;SDS011;35069;47.906;1.892;2022-12-18T03:13:44;44.30;;;20.65;;
49237;SDS011;35069;47.906;1.892;2022-12-18T03:16:17;38.80;;;18.95;;
49237;SDS011;35069;47.906;1.892;2022-12-18T03:18:52;36.33;;;18.67;;
49237;SDS011;35069;47.906;1.892;2022-12-18T03:21:35;39.42;;;19.20;;
49237;SDS011;35069;47.906;1.892;2022-12-18T03:24:06;41.28;;;19.75;;
49237;SDS011;35069;47.906;1.892;2022-12-18T03:26:34;40.80;;;19.88;;
49237;SDS011;35069;47.906;1.892;2022-12-18T03:29:03;45.03;;;21.80;;
49237;SDS011;35069;47.906;1.892;2022-12-18T03:31:34;34.92;;;19.48;;
49237;SDS011;35069;47.906;1.892;2022-12-18T03:34:11;34.97;;;18.25;;
49237;SDS011;35069;47.906;1.892;2022-12-18T03:36:40;35.75;;;19.83;;
49237;SDS011;35069;47.906;1.892;2022-12-18T03:39:06;42.13;;;18.98;;
49237;SDS011;35069;47.906;1.892;2022-12-18T03:41:32;40.15;;;19.83;;
49237;SDS011;35069;47.906;1.892;2022-12-18T03:46:51;41.50;;;19.80;;
49237;SDS011;35069;47.906;1.892;2022-12-18T03:52:14;38.38;;;20.27;;
49237;SDS011;35069;47.906;1.892;2022-12-18T03:54:45;40.53;;;20.35;;
49237;SDS011;35069;47.906;1.892;2022-12-18T03:57:21;41.15;;;20.10;;
49237;SDS011;35069;47.906;1.892;2022-12-18T03:59:50;35.10;;;19.20;;
49237;SDS011;35069;47.906;1.892;2022-12-18T04:02:20;38.33;;;19.08;;
49237;SDS011;35069;47.906;1.892;2022-12-18T04:04:47;42.47;;;20.75;;
49237;SDS011;35069;47.906;1.892;2022-12-18T04:07:17;36.40;;;19.63;;
49237;SDS011;35069;47.906;1.892;2022-12-18T04:09:43;39.75;;;19.25;;
49237;SDS011;35069;47.906;1.892;2022-12-18T04:12:11;39.45;;;19.25;;
49237;SDS011;35069;47.906;1.892;2022-12-18T04:14:36;39.22;;;19.13;;
49237;SDS011;35069;47.906;1.892;2022-12-18T04:17:02;42.30;;;20.27;;
49237;SDS011;35069;47.906;1.892;2022-12-18T04:19:28;41.45;;;18.25;;
49237;SDS011;35069;47.906;1.892;2022-12-18T04:21:54;31.38;;;18.38;;
49237;SDS011;35069;47.906;1.892;2022-12-18T04:24:20;37.53;;;18.63;;
49237;SDS011;35069;47.906;1.892;2022-12-18T04:26:45;31.88;;;17.63;;
49237;SDS011;35069;47.906;1.892;2022-12-18T04:29:11;40.60;;;18.00;;
49237;SDS011;35069;47.906;1.892;2022-12-18T04:31:37;39.30;;;19.60;;
49237;SDS011;35069;47.906;1.892;2022-12-18T04:34:02;38.08;;;19.50;;
49237;SDS011;35069;47.906;1.892;2022-12-18T04:36:29;36.88;;;21.17;;
49237;SDS011;35069;47.906;1.892;2022-12-18T04:38:55;38.50;;;19.02;;
49237;SDS011;35069;47.906;1.892;2022-12-18T04:41:21;36.42;;;17.58;;
49237;SDS011;35069;47.906;1.892;2022-12-18T04:43:46;41.05;;;18.40;;
49237;SDS011;35069;47.906;1.892;2022-12-18T04:46:12;35.03;;;19.13;;
49237;SDS011;35069;47.906;1.892;2022-12-18T04:48:38;40.25;;;21.20;;
49237;SDS011;35069;47.906;1.892;2022-12-18T04:51:04;37.70;;;19.20;;
49237;SDS011;35069;47.906;1.892;2022-12-18T04:53:30;39.20;;;18.33;;
49237;SDS011;35069;47.906;1.892;2022-12-18T04:56:06;36.25;;;19.10;;
49237;SDS011;35069;47.906;1.892;2022-12-18T04:58:34;35.30;;;18.40;;
49237;SDS011;35069;47.906;1.892;2022-12-18T05:01:01;36.42;;;19.77;;
49237;SDS011;35069;47.906;1.892;2022-12-18T05:03:26;39.83;;;19.08;;
49237;SDS011;35069;47.906;1.892;2022-12-18T05:05:52;35.25;;;18.05;;
49237;SDS011;35069;47.906;1.892;2022-12-18T05:08:18;37.42;;;19.77;;
49237;SDS011;35069;47.906;1.892;2022-12-18T05:10:44;36.72;;;18.48;;
49237;SDS011;35069;47.906;1.892;2022-12-18T05:13:09;33.17;;;16.80;;
49237;SDS011;35069;47.906;1.892;2022-12-18T05:15:35;37.92;;;18.63;;
49237;SDS011;35069;47.906;1.892;2022-12-18T05:18:01;34.40;;;18.42;;
49237;SDS011;35069;47.906;1.892;2022-12-18T05:20:28;36.90;;;17.70;;
49237;SDS011;35069;47.906;1.892;2022-12-18T05:22:53;34.90;;;17.80;;
49237;SDS011;35069;47.906;1.892;2022-12-18T05:25:19;34.95;;;17.63;;
49237;SDS011;35069;47.906;1.892;2022-12-18T05:27:46;37.35;;;19.58;;
49237;SDS011;35069;47.906;1.892;2022-12-18T05:30:12;37.47;;;19.58;;
49237;SDS011;35069;47.906;1.892;2022-12-18T05:32:38;34.05;;;17.50;;
49237;SDS011;35069;47.906;1.892;2022-12-18T05:35:04;41.50;;;19.50;;
49237;SDS011;35069;47.906;1.892;2022-12-18T05:37:31;37.70;;;17.25;;
49237;SDS011;35069;47.906;1.892;2022-12-18T05:39:57;39.97;;;19.80;;
49237;SDS011;35069;47.906;1.892;2022-12-18T05:42:23;34.10;;;17.40;;
49237;SDS011;35069;47.906;1.892;2022-12-18T05:44:48;36.08;;;17.85;;
49237;SDS011;35069;47.906;1.892;2022-12-18T05:47:14;37.35;;;18.27;;
49237;SDS011;35069;47.906;1.892;2022-12-18T05:49:39;36.22;;;19.75;;
49237;SDS011;35069;47.906;1.892;2022-12-18T05:52:05;35.28;;;18.23;;
49237;SDS011;35069;47.906;1.892;2022-12-18T05:54:31;32.05;;;17.17;;
49237;SDS011;35069;47.906;1.892;2022-12-18T05:56:57;34.30;;;16.95;;
49237;SDS011;35069;47.906;1.892;2022-12-18T05:59:23;40.33;;;20.02;;
49237;SDS011;35069;47.906;1.892;2022-12-18T06:01:49;34.45;;;17.52;;
49237;SDS011;35069;47.906;1.892;2022-12-18T06:04:14;32.17;;;18.23;;
49237;SDS011;35069;47.906;1.892;2022-12-18T06:06:40;34.17;;;17.60;;
49237;SDS011;35069;47.906;1.892;2022-12-18T06:09:05;29.63;;;16.13;;
49237;SDS011;35069;47.906;1.892;2022-12-18T06:11:38;37.50;;;20.40;;
49237;SDS011;35069;47.906;1.892;2022-12-18T06:14:05;33.55;;;18.60;;
49237;SDS011;35069;47.906;1.892;2022-12-18T06:16:31;34.20;;;18.50;;
49237;SDS011;35069;47.906;1.892;2022-12-18T06:18:57;35.42;;;17.83;;
49237;SDS011;35069;47.906;1.892;2022-12-18T06:21:23;32.42;;;18.35;;
49237;SDS011;35069;47.906;1.892;2022-12-18T06:23:49;34.33;;;17.65;;
49237;SDS011;35069;47.906;1.892;2022-12-18T06:26:15;40.00;;;19.13;;
49237;SDS011;35069;47.906;1.892;2022-12-18T06:28:41;36.78;;;18.45;;
49237;SDS011;35069;47.906;1.892;2022-12-18T06:31:07;35.90;;;19.08;;
49237;SDS011;35069;47.906;1.892;2022-12-18T06:33:33;36.70;;;18.17;;
49237;SDS011;35069;47.906;1.892;2022-12-18T06:36:00;32.95;;;17.20;;
49237;SDS011;35069;47.906;1.892;2022-12-18T06:38:28;39.67;;;18.33;;
49237;SDS011;35069;47.906;1.892;2022-12-18T06:40:54;35.13;;;19.10;;
49237;SDS011;35069;47.906;1.892;2022-12-18T06:43:19;35.40;;;18.48;;
49237;SDS011;35069;47.906;1.892;2022-12-18T06:45:45;40.35;;;19.88;;
49237;SDS011;35069;47.906;1.892;2022-12-18T06:48:14;34.90;;;18.38;;
49237;SDS011;35069;47.906;1.892;2022-12-18T06:50:41;37.15;;;18.25;;
49237;SDS011;35069;47.906;1.892;2022-12-18T06:53:08;35.90;;;20.63;;
49237;SDS011;35069;47.906;1.892;2022-12-18T06:55:33;36.42;;;18.92;;
49237;SDS011;35069;47.906;1.892;2022-12-18T06:57:59;35.25;;;17.60;;
49237;SDS011;35069;47.906;1.892;2022-12-18T07:00:24;44.15;;;20.85;;
49237;SDS011;35069;47.906;1.892;2022-12-18T07:02:50;42.33;;;20.05;;
49237;SDS011;35069;47.906;1.892;2022-12-18T07:05:15;38.03;;;19.00;;
49237;SDS011;35069;47.906;1.892;2022-12-18T07:07:41;32.95;;;17.55;;
49237;SDS011;35069;47.906;1.892;2022-12-18T07:10:07;40.63;;;21.20;;
49237;SDS011;35069;47.906;1.892;2022-12-18T07:12:33;37.38;;;18.80;;
49237;SDS011;35069;47.906;1.892;2022-12-18T07:14:58;38.58;;;20.25;;
49237;SDS011;35069;47.906;1.892;2022-12-18T07:17:24;37.00;;;19.05;;
49237;SDS011;35069;47.906;1.892;2022-12-18T07:19:49;41.92;;;20.85;;
49237;SDS011;35069;47.906;1.892;2022-12-18T07:22:15;39.70;;;20.70;;
49237;SDS011;35069;47.906;1.892;2022-12-18T07:24:41;40.95;;;19.15;;
49237;SDS011;35069;47.906;1.892;2022-12-18T07:27:06;35.63;;;19.20;;
49237;SDS011;35069;47.906;1.892;2022-12-18T07:29:32;40.60;;;19.35;;
49237;SDS011;35069;47.906;1.892;2022-12-18T07:31:58;37.45;;;19.83;;
49237;SDS011;35069;47.906;1.892;2022-12-18T07:34:23;38.17;;;19.90;;
49237;SDS011;35069;47.906;1.892;2022-12-18T07:36:49;38.15;;;19.35;;
49237;SDS011;35069;47.906;1.892;2022-12-18T07:39:14;39.85;;;18.38;;
49237;SDS011;35069;47.906;1.892;2022-12-18T07:41:40;36.60;;;20.50;;
49237;SDS011;35069;47.906;1.892;2022-12-18T07:44:10;36.63;;;19.00;;
49237;SDS011;35069;47.906;1.892;2022-12-18T07:46:37;38.72;;;20.98;;
49237;SDS011;35069;47.906;1.892;2022-12-18T07:49:03;34.17;;;17.17;;
49237;SDS011;35069;47.906;1.892;2022-12-18T07:51:29;37.53;;;18.45;;
49237;SDS011;35069;47.906;1.892;2022-12-18T07:53:55;35.33;;;18.33;;
49237;SDS011;35069;47.906;1.892;2022-12-18T07:56:21;41.70;;;20.42;;
49237;SDS011;35069;47.906;1.892;2022-12-18T07:58:47;36.08;;;18.48;;
49237;SDS011;35069;47.906;1.892;2022-12-18T08:01:13;43.65;;;19.70;;
49237;SDS011;35069;47.906;1.892;2022-12-18T08:03:39;42.40;;;19.60;;
49237;SDS011;35069;47.906;1.892;2022-12-18T08:06:06;47.80;;;22.80;;
49237;SDS011;35069;47.906;1.892;2022-12-18T08:08:33;38.70;;;19.25;;
49237;SDS011;35069;47.906;1.892;2022-12-18T08:11:00;39.60;;;20.05;;
49237;SDS011;35069;47.906;1.892;2022-12-18T08:13:27;41.80;;;21.92;;
49237;SDS011;35069;47.906;1.892;2022-12-18T08:15:56;43.10;;;21.73;;
49237;SDS011;35069;47.906;1.892;2022-12-18T08:18:23;38.25;;;21.50;;
49237;SDS011;35069;47.906;1.892;2022-12-18T08:20:49;40.78;;;21.35;;
49237;SDS011;35069;47.906;1.892;2022-12-18T08:23:15;42.05;;;22.83;;
49237;SDS011;35069;47.906;1.892;2022-12-18T08:25:43;46.83;;;22.30;;
49237;SDS011;35069;47.906;1.892;2022-12-18T08:28:09;40.53;;;21.50;;
49237;SDS011;35069;47.906;1.892;2022-12-18T08:30:35;43.47;;;22.02;;
49237;SDS011;35069;47.906;1.892;2022-12-18T08:33:01;43.50;;;21.73;;
49237;SDS011;35069;47.906;1.892;2022-12-18T08:35:26;38.10;;;20.40;;
49237;SDS011;35069;47.906;1.892;2022-12-18T08:37:53;43.63;;;21.65;;
49237;SDS011;35069;47.906;1.892;2022-12-18T08:40:18;38.72;;;21.50;;
49237;SDS011;35069;47.906;1.892;2022-12-18T08:42:44;39.58;;;21.38;;
49237;SDS011;35069;47.906;1.892;2022-12-18T08:45:36;44.83;;;19.77;;
49237;SDS011;35069;47.906;1.892;2022-12-18T08:48:17;41.55;;;20.77;;
49237;SDS011;35069;47.906;1.892;2022-12-18T08:51:04;42.17;;;21.25;;
49237;SDS011;35069;47.906;1.892;2022-12-18T08:56:34;39.65;;;21.98;;
49237;SDS011;35069;47.906;1.892;2022-12-18T08:59:40;41.33;;;19.95;;
49237;SDS011;35069;47.906;1.892;2022-12-18T09:02:10;39.47;;;20.33;;
49237;SDS011;35069;47.906;1.892;2022-12-18T09:04:38;47.72;;;22.48;;
49237;SDS011;35069;47.906;1.892;2022-12-18T09:07:10;36.45;;;20.42;;
49237;SDS011;35069;47.906;1.892;2022-12-18T09:09:36;38.47;;;20.92;;
49237;SDS011;35069;47.906;1.892;2022-12-18T09:12:02;37.80;;;20.17;;
49237;SDS011;35069;47.906;1.892;2022-12-18T09:17:30;38.80;;;19.15;;
49237;SDS011;35069;47.906;1.892;2022-12-18T09:19:56;36.05;;;20.42;;
49237;SDS011;35069;47.906;1.892;2022-12-18T09:22:22;38.03;;;19.88;;
49237;SDS011;35069;47.906;1.892;2022-12-18T09:24:48;41.92;;;21.67;;
49237;SDS011;35069;47.906;1.892;2022-12-18T09:27:14;40.78;;;21.25;;
49237;SDS011;35069;47.906;1.892;2022-12-18T09:29:39;40.05;;;20.77;;
49237;SDS011;35069;47.906;1.892;2022-12-18T09:32:05;43.38;;;21.95;;
49237;SDS011;35069;47.906;1.892;2022-12-18T09:34:31;43.88;;;20.63;;
49237;SDS011;35069;47.906;1.892;2022-12-18T09:36:56;42.38;;;20.60;;
49237;SDS011;35069;47.906;1.892;2022-12-18T09:39:22;44.72;;;22.23;;
49237;SDS011;35069;47.906;1.892;2022-12-18T09:41:52;38.70;;;21.45;;
49237;SDS011;35069;47.906;1.892;2022-12-18T09:49:30;41.20;;;22.48;;
49237;SDS011;35069;47.906;1.892;2022-12-18T09:57:28;43.58;;;22.42;;
49237;SDS011;35069;47.906;1.892;2022-12-18T10:00:19;40.50;;;19.15;;
49237;SDS011;35069;47.906;1.892;2022-12-18T10:02:45;30.65;;;15.90;;
49237;SDS011;35069;47.906;1.892;2022-12-18T10:05:23;35.78;;;20.20;;
49237;SDS011;35069;47.906;1.892;2022-12-18T10:13:14;41.40;;;19.30;;
49237;SDS011;35069;47.906;1.892;2022-12-18T10:16:09;36.50;;;18.80;;
49237;SDS011;35069;47.906;1.892;2022-12-18T10:21:47;37.28;;;18.38;;
49237;SDS011;35069;47.906;1.892;2022-12-18T10:27:14;29.98;;;17.05;;
49237;SDS011;35069;47.906;1.892;2022-12-18T10:29:42;31.85;;;16.98;;
49237;SDS011;35069;47.906;1.892;2022-12-18T10:32:19;31.52;;;17.52;;
49237;SDS011;35069;47.906;1.892;2022-12-18T10:34:51;27.90;;;16.42;;
49237;SDS011;35069;47.906;1.892;2022-12-18T10:37:19;32.33;;;16.67;;
49237;SDS011;35069;47.906;1.892;2022-12-18T10:42:42;28.77;;;15.63;;
49237;SDS011;35069;47.906;1.892;2022-12-18T10:45:13;29.45;;;16.60;;
49237;SDS011;35069;47.906;1.892;2022-12-18T10:47:43;28.23;;;15.48;;
49237;SDS011;35069;47.906;1.892;2022-12-18T10:50:28;27.40;;;14.63;;
49237;SDS011;35069;47.906;1.892;2022-12-18T10:52:58;24.85;;;14.50;;
49237;SDS011;35069;47.906;1.892;2022-12-18T10:55:35;27.52;;;14.57;;
49237;SDS011;35069;47.906;1.892;2022-12-18T10:58:24;22.15;;;13.65;;
49237;SDS011;35069;47.906;1.892;2022-12-18T11:03:37;31.77;;;14.60;;
49237;SDS011;35069;47.906;1.892;2022-12-18T11:08:34;26.30;;;15.43;;
49237;SDS011;35069;47.906;1.892;2022-12-18T11:10:59;23.92;;;14.07;;
49237;SDS011;35069;47.906;1.892;2022-12-18T11:13:26;27.38;;;14.20;;
49237;SDS011;35069;47.906;1.892;2022-12-18T11:15:54;26.13;;;15.40;;
49237;SDS011;35069;47.906;1.892;2022-12-18T11:18:27;29.90;;;15.35;;
49237;SDS011;35069;47.906;1.892;2022-12-18T11:20:56;24.30;;;13.93;;
49237;SDS011;35069;47.906;1.892;2022-12-18T11:23:24;21.65;;;13.65;;
49237;SDS011;35069;47.906;1.892;2022-12-18T11:25:52;23.92;;;13.75;;
49237;SDS011;35069;47.906;1.892;2022-12-18T11:28:36;25.58;;;14.70;;
49237;SDS011;35069;47.906;1.892;2022-12-18T11:31:19;24.08;;;13.15;;
49237;SDS011;35069;47.906;1.892;2022-12-18T11:33:54;25.83;;;14.40;;
49237;SDS011;35069;47.906;1.892;2022-12-18T11:36:28;27.67;;;14.40;;
49237;SDS011;35069;47.906;1.892;2022-12-18T11:38:59;22.35;;;13.77;;
49237;SDS011;35069;47.906;1.892;2022-12-18T11:44:41;22.17;;;13.32;;
49237;SDS011;35069;47.906;1.892;2022-12-18T11:47:13;25.65;;;13.23;;
49237;SDS011;35069;47.906;1.892;2022-12-18T11:49:40;27.90;;;14.27;;
49237;SDS011;35069;47.906;1.892;2022-12-18T11:52:15;28.90;;;15.52;;
49237;SDS011;35069;47.906;1.892;2022-12-18T11:54:41;25.30;;;15.10;;
49237;SDS011;35069;47.906;1.892;2022-12-18T11:57:10;26.45;;;15.63;;
49237;SDS011;35069;47.906;1.892;2022-12-18T12:10:49;26.02;;;13.25;;
49237;SDS011;35069;47.906;1.892;2022-12-18T12:16:18;25.38;;;13.02;;
49237;SDS011;35069;47.906;1.892;2022-12-18T12:21:40;24.02;;;13.02;;
49237;SDS011;35069;47.906;1.892;2022-12-18T13:01:58;20.20;;;11.57;;
49237;SDS011;35069;47.906;1.892;2022-12-18T13:22:47;23.77;;;12.35;;
49237;SDS011;35069;47.906;1.892;2022-12-18T13:28:23;18.58;;;11.70;;
49237;SDS011;35069;47.906;1.892;2022-12-18T13:31:11;17.38;;;11.75;;
49237;SDS011;35069;47.906;1.892;2022-12-18T13:34:19;20.58;;;11.40;;
49237;SDS011;35069;47.906;1.892;2022-12-18T13:50:24;19.80;;;12.77;;
49237;SDS011;35069;47.906;1.892;2022-12-18T13:56:50;20.85;;;11.85;;
49237;SDS011;35069;47.906;1.892;2022-12-18T14:02:15;23.23;;;14.55;;
49237;SDS011;35069;47.906;1.892;2022-12-18T14:04:44;21.63;;;11.50;;
49237;SDS011;35069;47.906;1.892;2022-12-18T14:07:11;20.80;;;13.20;;
49237;SDS011;35069;47.906;1.892;2022-12-18T14:09:40;20.30;;;11.77;;
49237;SDS011;35069;47.906;1.892;2022-12-18T14:12:17;22.10;;;12.68;;
49237;SDS011;35069;47.906;1.892;2022-12-18T14:17:47;21.27;;;11.38;;
49237;SDS011;35069;47.906;1.892;2022-12-18T14:20:15;19.30;;;12.05;;
49237;SDS011;35069;47.906;1.892;2022-12-18T14:22:46;20.20;;;11.93;;
49237;SDS011;35069;47.906;1.892;2022-12-18T14:25:22;17.48;;;11.55;;
49237;SDS011;35069;47.906;1.892;2022-12-18T14:27:51;20.83;;;12.80;;
49237;SDS011;35069;47.906;1.892;2022-12-18T14:30:32;24.95;;;14.85;;
49237;SDS011;35069;47.906;1.892;2022-12-18T14:33:01;27.92;;;13.90;;
49237;SDS011;35069;47.906;1.892;2022-12-18T14:35:31;31.45;;;15.02;;
49237;SDS011;35069;47.906;1.892;2022-12-18T14:41:17;26.50;;;12.88;;
49237;SDS011;35069;47.906;1.892;2022-12-18T14:43:45;22.13;;;11.95;;
49237;SDS011;35069;47.906;1.892;2022-12-18T14:48:57;27.10;;;14.98;;
49237;SDS011;35069;47.906;1.892;2022-12-18T14:51:28;20.13;;;12.88;;
49237;SDS011;35069;47.906;1.892;2022-12-18T14:53:59;21.10;;;11.57;;
49237;SDS011;35069;47.906;1.892;2022-12-18T14:56:49;20.70;;;12.90;;
49237;SDS011;35069;47.906;1.892;2022-12-18T14:59:27;21.30;;;12.57;;
49237;SDS011;35069;47.906;1.892;2022-12-18T15:02:03;23.52;;;13.02;;
49237;SDS011;35069;47.906;1.892;2022-12-18T15:04:58;19.13;;;11.65;;
49237;SDS011;35069;47.906;1.892;2022-12-18T15:14:45;24.35;;;13.13;;
49237;SDS011;35069;47.906;1.892;2022-12-18T15:21:00;24.95;;;13.32;;
49237;SDS011;35069;47.906;1.892;2022-12-18T15:26:32;24.05;;;14.68;;
49237;SDS011;35069;47.906;1.892;2022-12-18T15:29:14;24.90;;;14.70;;
49237;SDS011;35069;47.906;1.892;2022-12-18T15:32:17;34.83;;;20.50;;
49237;SDS011;35069;47.906;1.892;2022-12-18T15:37:43;33.95;;;17.58;;
49237;SDS011;35069;47.906;1.892;2022-12-18T15:43:08;34.35;;;17.60;;
49237;SDS011;35069;47.906;1.892;2022-12-18T15:45:52;28.80;;;16.13;;
49237;SDS011;35069;47.906;1.892;2022-12-18T15:48:22;23.45;;;13.77;;
49237;SDS011;35069;47.906;1.892;2022-12-18T15:53:41;23.23;;;13.63;;
49237;SDS011;35069;47.906;1.892;2022-12-18T15:56:11;25.20;;;14.15;;
49237;SDS011;35069;47.906;1.892;2022-12-18T15:58:56;23.05;;;14.13;;
49237;SDS011;35069;47.906;1.892;2022-12-18T16:01:22;26.52;;;15.18;;
49237;SDS011;35069;47.906;1.892;2022-12-18T16:03:50;24.67;;;14.73;;
49237;SDS011;35069;47.906;1.892;2022-12-18T16:06:16;26.75;;;15.93;;
49237;SDS011;35069;47.906;1.892;2022-12-18T16:08:47;22.50;;;13.30;;
49237;SDS011;35069;47.906;1.892;2022-12-18T16:14:03;26.98;;;16.00;;
49237;SDS011;35069;47.906;1.892;2022-12-18T16:16:41;23.20;;;14.68;;
49237;SDS011;35069;47.906;1.892;2022-12-18T16:19:07;24.08;;;14.43;;
49237;SDS011;35069;47.906;1.892;2022-12-18T16:21:33;25.73;;;14.43;;
49237;SDS011;35069;47.906;1.892;2022-12-18T16:23:59;25.75;;;15.35;;
49237;SDS011;35069;47.906;1.892;2022-12-18T16:26:24;23.30;;;15.70;;
49237;SDS011;35069;47.906;1.892;2022-12-18T16:28:50;25.60;;;13.90;;
49237;SDS011;35069;47.906;1.892;2022-12-18T16:31:16;23.48;;;14.23;;
49237;SDS011;35069;47.906;1.892;2022-12-18T16:36:50;22.73;;;13.95;;
49237;SDS011;35069;47.906;1.892;2022-12-18T16:39:16;21.08;;;13.25;;
49237;SDS011;35069;47.906;1.892;2022-12-18T16:41:42;20.67;;;13.02;;
49237;SDS011;35069;47.906;1.892;2022-12-18T16:44:08;22.83;;;13.40;;
49237;SDS011;35069;47.906;1.892;2022-12-18T16:46:35;22.38;;;12.70;;
49237;SDS011;35069;47.906;1.892;2022-12-18T16:49:01;24.98;;;14.77;;
49237;SDS011;35069;47.906;1.892;2022-12-18T16:51:28;19.33;;;11.45;;
49237;SDS011;35069;47.906;1.892;2022-12-18T16:53:54;18.50;;;11.50;;
49237;SDS011;35069;47.906;1.892;2022-12-18T16:56:20;24.65;;;14.02;;
49237;SDS011;35069;47.906;1.892;2022-12-18T16:58:52;30.17;;;16.30;;
49237;SDS011;35069;47.906;1.892;2022-12-18T17:03:50;25.88;;;13.23;;
49237;SDS011;35069;47.906;1.892;2022-12-18T17:06:22;26.20;;;14.15;;
49237;SDS011;35069;47.906;1.892;2022-12-18T17:11:26;18.60;;;11.95;;
49237;SDS011;35069;47.906;1.892;2022-12-18T17:13:53;27.88;;;15.00;;
49237;SDS011;35069;47.906;1.892;2022-12-18T17:16:19;21.17;;;13.50;;
49237;SDS011;35069;47.906;1.892;2022-12-18T17:18:46;20.33;;;12.70;;
49237;SDS011;35069;47.906;1.892;2022-12-18T17:21:13;19.60;;;11.18;;
49237;SDS011;35069;47.906;1.892;2022-12-18T17:23:39;18.27;;;12.88;;
49237;SDS011;35069;47.906;1.892;2022-12-18T17:26:06;18.63;;;11.13;;
49237;SDS011;35069;47.906;1.892;2022-12-18T17:28:49;21.30;;;12.90;;
49237;SDS011;35069;47.906;1.892;2022-12-18T17:31:16;21.08;;;12.52;;
49237;SDS011;35069;47.906;1.892;2022-12-18T17:33:43;16.88;;;11.18;;
49237;SDS011;35069;47.906;1.892;2022-12-18T17:36:09;17.63;;;11.32;;
49237;SDS011;35069;47.906;1.892;2022-12-18T17:38:36;18.73;;;10.70;;
49237;SDS011;35069;47.906;1.892;2022-12-18T17:41:03;19.45;;;11.00;;
49237;SDS011;35069;47.906;1.892;2022-12-18T17:43:31;19.33;;;10.13;;
49237;SDS011;35069;47.906;1.892;2022-12-18T17:46:02;17.17;;;10.63;;
49237;SDS011;35069;47.906;1.892;2022-12-18T17:48:31;19.45;;;10.95;;
49237;SDS011;35069;47.906;1.892;2022-12-18T17:51:01;13.98;;;9.73;;
49237;SDS011;35069;47.906;1.892;2022-12-18T17:53:29;13.25;;;8.57;;
49237;SDS011;35069;47.906;1.892;2022-12-18T17:55:55;11.65;;;7.55;;
49237;SDS011;35069;47.906;1.892;2022-12-18T17:58:23;13.15;;;7.78;;
49237;SDS011;35069;47.906;1.892;2022-12-18T18:00:49;14.38;;;8.13;;